createdAt,value
2018-04-15T00:00:27.575Z,9.40
2018-04-15T00:02:53.712Z,9.40
2018-04-15T00:05:19.799Z,9.40
2018-04-15T00:07:46.555Z,9.50
2018-04-15T00:10:13.072Z,9.50
2018-04-15T00:12:39.207Z,9.50
2018-04-15T00:15:05.313Z,9.50
2018-04-15T00:17:31.599Z,9.50
2018-04-15T00:19:57.723Z,9.40
2018-04-15T00:22:24.075Z,9.40
2018-04-15T00:24:50.166Z,9.40
2018-04-15T00:27:17.343Z,9.50
2018-04-15T00:29:43.798Z,9.40
2018-04-15T00:32:09.907Z,9.50
2018-04-15T00:34:37.027Z,9.50
2018-04-15T00:37:03.213Z,9.50
2018-04-15T00:39:30.181Z,9.50
2018-04-15T00:41:56.346Z,9.50
2018-04-15T00:44:23.191Z,9.50
2018-04-15T00:46:49.444Z,9.50
2018-04-15T00:49:22.587Z,9.60
2018-04-15T00:51:48.693Z,9.50
2018-04-15T00:54:15.792Z,9.60
2018-04-15T00:56:41.879Z,9.50
2018-04-15T00:59:08.097Z,9.50
2018-04-15T01:01:34.317Z,9.50
2018-04-15T01:04:00.444Z,9.50
2018-04-15T01:06:26.926Z,9.50
2018-04-15T01:08:53.770Z,9.50
2018-04-15T01:11:20.643Z,9.50
2018-04-15T01:13:47.124Z,9.60
2018-04-15T01:16:13.242Z,9.50
2018-04-15T01:18:39.293Z,9.50
2018-04-15T01:21:05.448Z,9.50
2018-04-15T01:23:31.748Z,9.50
2018-04-15T01:25:57.886Z,9.50
2018-04-15T01:28:24.142Z,9.50
2018-04-15T01:30:50.329Z,9.50
2018-04-15T01:33:16.447Z,9.60
2018-04-15T01:35:43.149Z,9.50
2018-04-15T01:38:10.002Z,9.50
2018-04-15T01:40:36.158Z,9.50
2018-04-15T01:43:02.313Z,9.50
2018-04-15T01:45:28.544Z,9.50
2018-04-15T01:47:54.695Z,9.50
2018-04-15T01:50:20.917Z,9.50
2018-04-15T01:52:48.065Z,9.50
2018-04-15T01:55:14.873Z,9.50
2018-04-15T01:57:40.989Z,9.50
2018-04-15T02:00:07.069Z,9.50
2018-04-15T02:02:33.310Z,9.50
2018-04-15T02:04:59.493Z,9.50
2018-04-15T02:07:25.654Z,9.50
2018-04-15T02:09:51.775Z,9.50
2018-04-15T02:12:18.242Z,9.50
2018-04-15T02:14:44.330Z,9.50
2018-04-15T02:17:11.124Z,9.40
2018-04-15T02:19:37.398Z,9.40
2018-04-15T02:22:03.520Z,9.40
2018-04-15T02:24:29.632Z,9.40
2018-04-15T02:26:55.771Z,9.40
2018-04-15T02:29:21.903Z,9.30
2018-04-15T02:31:49.080Z,9.20
2018-04-15T02:34:15.210Z,9.20
2018-04-15T02:36:41.333Z,9.10
2018-04-15T02:39:08.371Z,8.90
2018-04-15T02:41:34.611Z,8.90
2018-04-15T02:44:00.849Z,8.80
2018-04-15T02:46:26.950Z,8.70
2018-04-15T02:48:53.081Z,8.70
2018-04-15T02:51:19.188Z,8.60
2018-04-15T02:53:46.041Z,8.50
2018-04-15T02:56:12.163Z,8.50
2018-04-15T02:58:38.236Z,8.40
2018-04-15T03:01:04.416Z,8.40
2018-04-15T03:03:30.477Z,8.30
2018-04-15T03:05:57.192Z,8.30
2018-04-15T03:08:23.379Z,8.20
2018-04-15T03:10:49.711Z,8.20
2018-04-15T03:13:15.791Z,8.20
2018-04-15T03:15:42.592Z,8.20
2018-04-15T03:18:08.638Z,8.20
2018-04-15T03:20:34.767Z,8.30
2018-04-15T03:23:00.866Z,8.30
2018-04-15T03:25:26.925Z,8.30
2018-04-15T03:27:53.017Z,8.30
2018-04-15T03:30:19.117Z,8.30
2018-04-15T03:32:45.254Z,8.30
2018-04-15T03:35:11.365Z,8.30
2018-04-15T03:37:37.404Z,8.30
2018-04-15T03:40:03.493Z,8.20
2018-04-15T03:42:30.590Z,8.20
2018-04-15T03:44:56.673Z,8.20
2018-04-15T03:47:22.732Z,8.20
2018-04-15T03:49:48.855Z,8.10
2018-04-15T03:52:16.689Z,8.10
2018-04-15T03:54:42.767Z,8.10
2018-04-15T03:57:08.867Z,8.10
2018-04-15T03:59:34.967Z,8.10
2018-04-15T04:02:01.100Z,8.10
2018-04-15T04:04:27.559Z,8.00
2018-04-15T04:06:53.611Z,8.10
2018-04-15T04:09:20.109Z,8.00
2018-04-15T04:11:46.182Z,8.10
2018-04-15T04:14:12.276Z,8.00
2018-04-15T04:16:38.606Z,8.10
2018-04-15T04:19:17.040Z,8.10
2018-04-15T04:21:55.540Z,8.20
2018-04-15T04:24:33.933Z,8.10
2018-04-15T04:26:59.996Z,8.20
2018-04-15T04:29:26.825Z,8.20
2018-04-15T04:31:52.914Z,8.20
2018-04-15T04:34:19.021Z,8.30
2018-04-15T04:36:45.113Z,8.30
2018-04-15T04:39:11.522Z,8.30
2018-04-15T04:41:38.343Z,8.30
2018-04-15T04:44:04.561Z,8.20
2018-04-15T04:46:30.791Z,8.20
2018-04-15T04:48:56.922Z,8.20
2018-04-15T04:51:23.030Z,8.20
2018-04-15T04:53:49.123Z,8.20
2018-04-15T04:56:15.154Z,8.20
2018-04-15T04:58:41.215Z,8.20
2018-04-15T05:01:07.344Z,8.20
2018-04-15T05:03:33.579Z,8.20
2018-04-15T05:05:59.720Z,8.20
2018-04-15T05:08:25.819Z,8.10
2018-04-15T05:10:51.880Z,8.20
2018-04-15T05:13:17.981Z,8.20
2018-04-15T05:15:44.114Z,8.20
2018-04-15T05:18:10.149Z,8.30
2018-04-15T05:20:36.496Z,8.30
2018-04-15T05:23:03.286Z,8.40
2018-04-15T05:25:29.389Z,8.30
2018-04-15T05:27:55.490Z,8.40
2018-04-15T05:30:22.361Z,8.40
2018-04-15T05:32:48.516Z,8.40
2018-04-15T05:35:14.633Z,8.40
2018-04-15T05:37:40.809Z,8.40
2018-04-15T05:40:07.175Z,8.40
2018-04-15T05:42:33.411Z,8.40
2018-04-15T05:44:59.642Z,8.40
2018-04-15T05:47:25.729Z,8.30
2018-04-15T05:49:52.031Z,8.40
2018-04-15T05:52:18.102Z,8.40
2018-04-15T05:54:44.270Z,8.50
2018-04-15T05:57:10.402Z,8.50
2018-04-15T05:59:36.567Z,8.50
2018-04-15T06:02:02.663Z,8.60
2018-04-15T06:04:28.823Z,8.70
2018-04-15T06:06:54.892Z,8.70
2018-04-15T06:09:22.263Z,8.70
2018-04-15T06:11:48.817Z,8.70
2018-04-15T06:14:14.972Z,8.80
2018-04-15T06:16:41.094Z,8.80
2018-04-15T06:19:07.530Z,8.90
2018-04-15T06:21:34.417Z,8.80
2018-04-15T06:24:00.555Z,8.80
2018-04-15T06:26:26.728Z,8.80
2018-04-15T06:28:53.699Z,9.10
2018-04-15T06:31:19.789Z,9.00
2018-04-15T06:33:45.893Z,9.10
2018-04-15T06:36:12.129Z,9.10
2018-04-15T06:38:38.894Z,9.00
2018-04-15T06:41:05.471Z,9.00
2018-04-15T06:43:31.801Z,9.10
2018-04-15T06:45:57.897Z,9.20
2018-04-15T06:48:23.974Z,9.20
2018-04-15T06:50:50.037Z,9.20
2018-04-15T06:53:16.111Z,9.20
2018-04-15T06:55:42.301Z,9.20
2018-04-15T06:58:08.342Z,9.30
2018-04-15T07:00:34.432Z,9.40
2018-04-15T07:03:00.615Z,9.40
2018-04-15T07:05:26.845Z,9.50
2018-04-15T07:07:52.972Z,9.50
2018-04-15T07:10:19.146Z,9.50
2018-04-15T07:12:45.231Z,9.50
2018-04-15T07:15:11.549Z,9.50
2018-04-15T07:17:37.662Z,9.50
2018-04-15T07:20:03.784Z,9.50
2018-04-15T07:22:30.320Z,9.50
2018-04-15T07:24:57.156Z,9.60
2018-04-15T07:27:23.232Z,9.50
2018-04-15T07:29:49.474Z,9.50
2018-04-15T07:32:16.357Z,9.50
2018-04-15T07:34:42.489Z,9.50
2018-04-15T07:37:08.560Z,9.50
2018-04-15T07:39:34.624Z,9.50
2018-04-15T07:42:00.757Z,9.50
2018-04-15T07:44:27.708Z,9.50
2018-04-15T07:46:53.854Z,9.50
2018-04-15T07:49:20.145Z,9.40
2018-04-15T07:51:47.035Z,9.40
2018-04-15T07:54:13.944Z,9.40
2018-04-15T07:56:39.994Z,9.50
2018-04-15T07:59:06.115Z,9.50
2018-04-15T08:01:32.217Z,9.60
2018-04-15T08:03:58.337Z,9.60
2018-04-15T08:06:24.590Z,9.50
2018-04-15T08:08:50.761Z,9.50
2018-04-15T08:11:16.872Z,9.50
2018-04-15T08:13:43.781Z,9.40
2018-04-15T08:16:09.907Z,9.50
2018-04-15T08:18:36.430Z,9.40
2018-04-15T08:21:03.383Z,9.50
2018-04-15T08:23:30.231Z,9.50
2018-04-15T08:25:56.417Z,9.50
2018-04-15T08:28:22.771Z,9.50
2018-04-15T08:30:48.842Z,9.50
2018-04-15T08:33:14.949Z,9.50
2018-04-15T08:35:41.009Z,9.50
2018-04-15T08:38:07.111Z,9.50
2018-04-15T08:40:33.195Z,9.50
2018-04-15T08:43:01.454Z,9.60
2018-04-15T08:45:27.864Z,9.70
2018-04-15T08:47:54.659Z,9.80
2018-04-15T08:50:20.837Z,9.70
2018-04-15T08:52:47.791Z,9.80
2018-04-15T08:55:13.914Z,9.80
2018-04-15T08:57:39.995Z,9.90
2018-04-15T09:00:06.804Z,10.00
2018-04-15T09:02:33.747Z,10.00
2018-04-15T09:05:00.434Z,10.00
2018-04-15T09:07:27.514Z,10.20
2018-04-15T09:09:54.476Z,10.20
2018-04-15T09:12:21.549Z,10.20
2018-04-15T09:14:48.474Z,10.20
2018-04-15T09:17:14.609Z,10.20
2018-04-15T09:19:40.669Z,10.20
2018-04-15T09:22:06.836Z,10.30
2018-04-15T09:24:33.665Z,10.20
2018-04-15T09:26:59.835Z,10.10
2018-04-15T09:29:25.943Z,10.20
2018-04-15T09:31:52.807Z,10.40
2018-04-15T09:34:18.933Z,10.30
2018-04-15T09:36:45.834Z,10.40
2018-04-15T09:39:11.960Z,10.40
2018-04-15T09:41:38.084Z,10.50
2018-04-15T09:44:04.233Z,10.30
2018-04-15T09:46:30.594Z,10.30
2018-04-15T09:48:57.994Z,10.20
2018-04-15T09:51:24.066Z,10.30
2018-04-15T09:53:50.148Z,10.30
2018-04-15T09:56:16.248Z,10.40
2018-04-15T09:58:43.258Z,10.40
2018-04-15T10:01:09.353Z,10.40
2018-04-15T10:03:35.683Z,10.40
2018-04-15T10:06:02.916Z,10.50
2018-04-15T10:08:29.226Z,10.50
2018-04-15T10:10:55.818Z,10.50
2018-04-15T10:13:22.430Z,10.70
2018-04-15T10:15:49.646Z,10.80
2018-04-15T10:18:16.464Z,11.00
2018-04-15T10:20:42.549Z,11.00
2018-04-15T10:23:09.663Z,11.10
2018-04-15T10:25:35.710Z,11.10
2018-04-15T10:28:01.803Z,11.10
2018-04-15T10:30:27.941Z,11.10
2018-04-15T10:32:53.973Z,11.10
2018-04-15T10:35:20.073Z,11.20
2018-04-15T10:37:46.196Z,11.10
2018-04-15T10:40:15.440Z,11.10
2018-04-15T10:42:41.536Z,11.10
2018-04-15T10:45:07.721Z,11.20
2018-04-15T10:47:33.890Z,11.30
2018-04-15T10:49:59.966Z,11.30
2018-04-15T10:52:26.142Z,11.20
2018-04-15T10:54:53.111Z,11.30
2018-04-15T10:57:20.197Z,11.50
2018-04-15T10:59:46.296Z,11.40
2018-04-15T11:02:14.715Z,11.50
2018-04-15T11:04:41.361Z,11.60
2018-04-15T11:07:15.015Z,11.50
2018-04-15T11:09:41.382Z,11.80
2018-04-15T11:12:07.816Z,11.90
2018-04-15T11:14:34.144Z,11.80
2018-04-15T11:17:06.206Z,12.10
2018-04-15T11:19:32.753Z,12.20
2018-04-15T11:21:59.020Z,12.40
2018-04-15T11:24:25.453Z,12.40
2018-04-15T11:26:51.537Z,12.50
2018-04-15T11:29:18.368Z,12.70
2018-04-15T11:31:44.480Z,12.70
2018-04-15T11:34:11.699Z,12.50
2018-04-15T11:36:38.023Z,12.40
2018-04-15T11:39:04.475Z,12.30
2018-04-15T11:41:30.690Z,12.40
2018-04-15T11:43:56.907Z,12.50
2018-04-15T11:46:23.365Z,12.50
2018-04-15T11:48:49.471Z,12.70
2018-04-15T11:51:15.886Z,12.80
2018-04-15T11:53:41.930Z,12.90
2018-04-15T11:56:08.102Z,13.40
2018-04-15T11:58:35.143Z,13.60
2018-04-15T12:01:01.377Z,13.60
2018-04-15T12:03:27.485Z,13.70
2018-04-15T12:05:53.558Z,13.60
2018-04-15T12:08:19.839Z,13.40
2018-04-15T12:10:46.655Z,13.20
2018-04-15T12:13:12.822Z,13.00
2018-04-15T12:15:39.025Z,13.10
2018-04-15T12:18:05.161Z,13.00
2018-04-15T12:20:31.292Z,13.00
2018-04-15T12:22:57.618Z,12.90
2018-04-15T12:25:23.682Z,12.80
2018-04-15T12:27:49.811Z,12.80
2018-04-15T12:30:15.973Z,12.60
2018-04-15T12:32:42.033Z,12.60
2018-04-15T12:35:08.118Z,12.40
2018-04-15T12:37:34.279Z,12.40
2018-04-15T12:40:00.551Z,12.40
2018-04-15T12:42:26.606Z,12.30
2018-04-15T12:44:54.418Z,12.30
2018-04-15T12:47:20.566Z,12.20
2018-04-15T12:49:46.744Z,12.30
2018-04-15T12:52:12.820Z,12.30
2018-04-15T12:54:39.850Z,12.10
2018-04-15T12:57:05.973Z,12.10
2018-04-15T12:59:32.875Z,12.10
2018-04-15T13:01:58.961Z,12.10
2018-04-15T13:04:25.043Z,12.10
2018-04-15T13:06:51.228Z,12.10
2018-04-15T13:09:17.499Z,12.00
2018-04-15T13:11:43.598Z,12.10
2018-04-15T13:14:09.648Z,12.10
2018-04-15T13:16:36.012Z,12.10
2018-04-15T13:19:02.149Z,12.00
2018-04-15T13:21:28.262Z,12.10
2018-04-15T13:23:54.468Z,12.10
2018-04-15T13:26:20.564Z,12.20
2018-04-15T13:28:46.690Z,12.20
2018-04-15T13:31:12.726Z,12.40
2018-04-15T13:33:38.847Z,12.60
2018-04-15T13:36:04.984Z,12.80
2018-04-15T13:38:31.221Z,12.90
2018-04-15T13:40:57.266Z,12.90
2018-04-15T13:43:23.463Z,13.10
2018-04-15T13:45:50.469Z,13.40
2018-04-15T13:48:16.576Z,13.40
2018-04-15T13:50:42.620Z,13.60
2018-04-15T13:53:08.641Z,13.80
2018-04-15T13:55:34.760Z,14.20
2018-04-15T13:58:00.982Z,14.60
2018-04-15T14:00:27.120Z,15.20
2018-04-15T14:02:54.079Z,15.60
2018-04-15T14:05:20.227Z,15.60
2018-04-15T14:07:46.359Z,15.40
2018-04-15T14:10:12.478Z,15.40
2018-04-15T14:12:38.559Z,15.70
2018-04-15T14:15:04.636Z,15.90
2018-04-15T14:17:30.851Z,15.90
2018-04-15T14:19:56.930Z,15.80
2018-04-15T14:22:23.055Z,15.70
2018-04-15T14:24:49.232Z,15.70
2018-04-15T14:27:15.382Z,15.60
2018-04-15T14:29:41.988Z,15.60
2018-04-15T14:32:08.105Z,15.50
2018-04-15T14:34:34.929Z,15.50
2018-04-15T14:37:01.118Z,15.50
2018-04-15T14:39:27.446Z,15.50
2018-04-15T14:41:54.270Z,15.60
2018-04-15T14:44:20.325Z,15.60
2018-04-15T14:46:47.192Z,15.60
2018-04-15T14:49:13.389Z,15.60
2018-04-15T14:51:39.471Z,15.40
2018-04-15T14:54:06.349Z,15.40
2018-04-15T14:56:32.502Z,15.40
2018-04-15T14:58:58.584Z,15.60
2018-04-15T15:01:24.715Z,15.40
2018-04-15T15:03:50.749Z,15.20
2018-04-15T15:06:16.829Z,15.00
2018-04-15T15:08:42.993Z,15.00
2018-04-15T15:11:09.067Z,14.90
2018-04-15T15:13:35.144Z,14.90
2018-04-15T15:16:01.270Z,15.10
2018-04-15T15:18:27.350Z,14.90
2018-04-15T15:20:53.420Z,14.80
2018-04-15T15:23:19.452Z,14.60
2018-04-15T15:25:45.533Z,14.70
2018-04-15T15:28:11.713Z,14.50
2018-04-15T15:30:37.814Z,14.50
2018-04-15T15:33:04.040Z,14.50
2018-04-15T15:35:30.400Z,14.50
2018-04-15T15:37:56.459Z,14.50
2018-04-15T15:40:22.527Z,14.60
2018-04-15T15:42:49.489Z,14.50
2018-04-15T15:45:15.577Z,14.40
2018-04-15T15:47:41.616Z,14.40
2018-04-15T15:50:07.702Z,14.20
2018-04-15T15:52:33.903Z,14.00
2018-04-15T15:55:00.124Z,14.30
2018-04-15T15:57:27.100Z,14.30
2018-04-15T15:59:53.173Z,14.30
2018-04-15T16:02:19.231Z,14.20
2018-04-15T16:04:46.009Z,14.00
2018-04-15T16:07:12.786Z,14.00
2018-04-15T16:09:38.889Z,14.00
2018-04-15T16:12:05.950Z,14.10
2018-04-15T16:14:32.754Z,14.20
2018-04-15T16:16:58.854Z,14.20
2018-04-15T16:19:25.063Z,14.00
2018-04-15T16:21:51.128Z,14.10
2018-04-15T16:24:17.205Z,14.10
2018-04-15T16:26:43.266Z,13.90
2018-04-15T16:29:09.430Z,13.90
2018-04-15T16:31:36.254Z,14.00
2018-04-15T16:34:02.362Z,14.00
2018-04-15T16:36:28.429Z,14.00
2018-04-15T16:38:54.523Z,13.90
2018-04-15T16:41:20.695Z,13.90
2018-04-15T16:43:47.689Z,13.90
2018-04-15T16:46:13.802Z,13.90
2018-04-15T16:48:39.897Z,14.00
2018-04-15T16:51:06.024Z,14.00
2018-04-15T16:53:32.958Z,14.00
2018-04-15T16:55:59.849Z,13.90
2018-04-15T16:58:26.982Z,13.90
2018-04-15T17:00:53.049Z,13.90
2018-04-15T17:03:19.953Z,13.60
2018-04-15T17:05:46.042Z,13.60
2018-04-15T17:08:12.165Z,13.50
2018-04-15T17:10:38.266Z,13.50
2018-04-15T17:13:04.424Z,13.40
2018-04-15T17:15:30.617Z,13.40
2018-04-15T17:17:56.744Z,13.40
2018-04-15T17:20:23.580Z,13.30
2018-04-15T17:22:49.718Z,13.20
2018-04-15T17:25:16.551Z,13.10
2018-04-15T17:27:42.634Z,13.10
2018-04-15T17:30:08.871Z,13.00
2018-04-15T17:32:34.979Z,13.00
2018-04-15T17:35:01.168Z,12.90
2018-04-15T17:37:27.336Z,13.00
2018-04-15T17:39:53.424Z,12.90
2018-04-15T17:42:20.268Z,12.90
2018-04-15T17:44:47.316Z,12.90
2018-04-15T17:47:13.410Z,12.80
2018-04-15T17:49:39.484Z,12.90
2018-04-15T17:52:05.998Z,12.90
2018-04-15T17:54:35.603Z,12.90
2018-04-15T17:57:01.796Z,12.80
2018-04-15T17:59:28.635Z,12.70
2018-04-15T18:01:54.762Z,12.70
2018-04-15T18:04:20.832Z,12.70
2018-04-15T18:06:46.927Z,12.70
2018-04-15T18:09:12.999Z,12.70
2018-04-15T18:11:38.993Z,12.70
2018-04-15T18:14:05.215Z,12.60
2018-04-15T18:16:31.680Z,12.60
2018-04-15T18:18:57.784Z,12.60
2018-04-15T18:21:24.674Z,12.50
2018-04-15T18:23:51.152Z,12.60
2018-04-15T18:26:18.412Z,12.50
2018-04-15T18:28:44.473Z,12.50
2018-04-15T18:31:10.677Z,12.60
2018-04-15T18:33:36.802Z,12.50
2018-04-15T18:36:03.132Z,12.50
2018-04-15T18:38:29.182Z,12.50
2018-04-15T18:40:55.250Z,12.50
2018-04-15T18:43:21.298Z,12.50
2018-04-15T18:45:47.420Z,12.50
2018-04-15T18:48:13.473Z,12.50
2018-04-15T18:50:39.513Z,12.50
2018-04-15T18:53:05.639Z,12.50
2018-04-15T18:55:32.002Z,12.50
2018-04-15T18:57:58.028Z,12.50
2018-04-15T19:00:24.061Z,12.40
2018-04-15T19:02:50.121Z,12.40
2018-04-15T19:05:16.386Z,12.40
2018-04-15T19:07:42.391Z,12.40
2018-04-15T19:10:09.286Z,12.40
2018-04-15T19:12:35.743Z,12.40
2018-04-15T19:15:03.675Z,12.40
2018-04-15T19:17:30.220Z,12.40
2018-04-15T19:19:56.346Z,12.40
2018-04-15T19:22:22.493Z,12.40
2018-04-15T19:24:48.547Z,12.40
2018-04-15T19:27:14.592Z,12.40
2018-04-15T19:29:40.738Z,12.40
2018-04-15T19:32:06.822Z,12.40
2018-04-15T19:34:32.952Z,12.40
2018-04-15T19:36:59.126Z,12.40
2018-04-15T19:39:25.173Z,12.40
2018-04-15T19:41:51.359Z,12.40
2018-04-15T19:44:18.325Z,12.40
2018-04-15T19:46:44.900Z,12.30
2018-04-15T19:49:11.426Z,12.40
2018-04-15T19:51:38.521Z,12.30
2018-04-15T19:54:04.609Z,12.30
2018-04-15T19:56:30.910Z,12.30
2018-04-15T19:58:57.106Z,12.20
2018-04-15T20:01:23.181Z,12.10
2018-04-15T20:03:49.258Z,12.00
2018-04-15T20:06:15.331Z,11.90
2018-04-15T20:08:41.598Z,11.80
2018-04-15T20:11:07.717Z,11.60
2018-04-15T20:13:34.335Z,11.50
2018-04-15T20:16:01.162Z,11.20
2018-04-15T20:18:27.198Z,11.20
2018-04-15T20:20:53.269Z,11.10
2018-04-15T20:23:20.339Z,10.90
2018-04-15T20:25:47.215Z,10.80
2018-04-15T20:28:13.277Z,10.80
2018-04-15T20:30:39.299Z,10.70
2018-04-15T20:33:05.333Z,10.70
2018-04-15T20:35:31.474Z,10.60
2018-04-15T20:37:57.575Z,10.60
2018-04-15T20:40:24.406Z,10.50
2018-04-15T20:42:50.835Z,10.50
2018-04-15T20:45:16.914Z,10.50
2018-04-15T20:47:43.919Z,10.50
2018-04-15T20:50:10.023Z,10.50
2018-04-15T20:52:36.109Z,10.50
2018-04-15T20:55:02.267Z,10.50
2018-04-15T20:57:28.368Z,10.40
2018-04-15T20:59:54.433Z,10.40
2018-04-15T21:02:20.641Z,10.40
2018-04-15T21:04:46.837Z,10.40
2018-04-15T21:07:12.886Z,10.30
2018-04-15T21:09:39.699Z,10.20
2018-04-15T21:12:05.764Z,10.20
2018-04-15T21:14:31.875Z,10.20
2018-04-15T21:16:57.912Z,10.20
2018-04-15T21:19:24.004Z,10.10
2018-04-15T21:21:50.036Z,10.10
2018-04-15T21:24:16.076Z,10.00
2018-04-15T21:26:42.160Z,10.00
2018-04-15T21:29:08.231Z,10.00
2018-04-15T21:31:34.529Z,9.90
2018-04-15T21:34:00.600Z,9.90
2018-04-15T21:36:26.663Z,9.80
2018-04-15T21:38:53.476Z,9.80
2018-04-15T21:41:19.579Z,9.70
2018-04-15T21:43:45.667Z,9.70
2018-04-15T21:46:11.752Z,9.70
2018-04-15T21:48:37.817Z,9.70
2018-04-15T21:51:03.989Z,9.70
2018-04-15T21:53:30.979Z,9.90
2018-04-15T21:55:57.056Z,9.90
2018-04-15T21:58:23.092Z,9.90
2018-04-15T22:00:49.441Z,10.00
2018-04-15T22:03:15.487Z,10.00
2018-04-15T22:05:41.567Z,10.00
2018-04-15T22:08:07.604Z,10.10
2018-04-15T22:10:34.456Z,10.10
2018-04-15T22:13:07.368Z,10.10
2018-04-15T22:15:33.437Z,10.20
2018-04-15T22:17:59.502Z,10.30
2018-04-15T22:20:25.545Z,10.30
2018-04-15T22:22:51.575Z,10.30
2018-04-15T22:25:18.479Z,10.40
2018-04-15T22:27:44.587Z,10.30
2018-04-15T22:30:11.422Z,10.30
2018-04-15T22:32:37.485Z,10.30
2018-04-15T22:35:04.324Z,10.20
2018-04-15T22:37:31.169Z,10.20
2018-04-15T22:39:57.525Z,10.10
2018-04-15T22:42:23.565Z,10.10
2018-04-15T22:44:49.629Z,10.00
2018-04-15T22:47:15.759Z,10.00
2018-04-15T22:49:42.557Z,9.90
2018-04-15T22:52:08.625Z,9.90
2018-04-15T22:54:34.757Z,9.80
2018-04-15T22:57:07.068Z,9.80
2018-04-15T22:59:33.900Z,9.80
2018-04-15T23:01:59.912Z,9.80
2018-04-15T23:04:25.928Z,9.80
2018-04-15T23:06:51.957Z,9.80
2018-04-15T23:09:18.016Z,9.80
2018-04-15T23:11:44.062Z,9.70
2018-04-15T23:14:10.138Z,9.80
2018-04-15T23:16:36.967Z,9.80
2018-04-15T23:19:03.021Z,9.80
2018-04-15T23:21:29.197Z,9.80
2018-04-15T23:23:55.225Z,9.70
2018-04-15T23:26:21.255Z,9.80
2018-04-15T23:28:48.306Z,9.80
2018-04-15T23:31:15.126Z,9.80
2018-04-15T23:33:41.191Z,9.80
2018-04-15T23:36:07.234Z,9.80
2018-04-15T23:38:34.094Z,9.70
2018-04-15T23:41:00.935Z,9.70
2018-04-15T23:43:26.994Z,9.70
2018-04-15T23:45:53.817Z,9.70
2018-04-15T23:48:19.866Z,9.60
2018-04-15T23:50:46.215Z,9.60
2018-04-15T23:53:12.992Z,9.60
2018-04-15T23:55:39.053Z,9.60
2018-04-15T23:58:05.108Z,9.50
